createdAt,value
2018-06-10T00:12:44.436Z,290.17
2018-06-10T00:15:25.914Z,382.70
2018-06-10T00:18:05.192Z,456.83
2018-06-10T00:20:45.594Z,345.43
2018-06-10T00:23:25.750Z,229.17
2018-06-10T00:26:05.693Z,191.00
2018-06-10T00:28:48.095Z,199.80
2018-06-10T00:31:27.519Z,204.00
2018-06-10T00:34:06.517Z,211.87
2018-06-10T00:36:45.152Z,228.97
2018-06-10T00:39:23.193Z,221.73
2018-06-10T00:42:02.829Z,296.27
2018-06-10T00:44:41.990Z,251.07
2018-06-10T00:47:18.812Z,239.53
2018-06-10T00:49:57.279Z,293.13
2018-06-10T00:52:38.339Z,252.67
2018-06-10T00:55:19.390Z,280.67
2018-06-10T00:57:58.015Z,255.20
2018-06-10T01:00:37.191Z,204.47
2018-06-10T01:03:15.894Z,353.80
2018-06-10T01:05:57.592Z,445.00
2018-06-10T01:08:36.614Z,494.30
2018-06-10T01:11:16.269Z,553.83
2018-06-10T01:13:54.934Z,395.17
2018-06-10T01:16:33.155Z,253.90
2018-06-10T01:19:13.876Z,234.70
2018-06-10T01:21:53.331Z,317.17
2018-06-10T01:24:34.274Z,214.87
2018-06-10T01:27:13.872Z,180.47
2018-06-10T01:29:53.056Z,161.33
2018-06-10T01:32:32.313Z,147.10
2018-06-10T01:35:13.594Z,161.87
2018-06-10T01:37:52.054Z,169.03
2018-06-10T01:40:31.018Z,170.73
2018-06-10T01:43:09.295Z,169.43
2018-06-10T01:45:48.902Z,169.43
2018-06-10T03:02:45.720Z,204.77
2018-06-10T03:05:24.684Z,194.97
2018-06-10T03:08:04.016Z,184.73
2018-06-10T03:10:43.219Z,270.00
2018-06-10T03:13:22.399Z,341.70
2018-06-10T03:16:03.318Z,325.97
2018-06-10T03:18:42.481Z,296.03
2018-06-10T03:21:21.660Z,255.57
2018-06-10T03:24:00.142Z,279.40
2018-06-10T03:26:39.733Z,302.07
2018-06-10T03:29:18.682Z,240.67
2018-06-10T03:31:57.600Z,188.10
2018-06-10T03:34:36.498Z,146.23
2018-06-10T03:37:17.163Z,177.00
2018-06-10T03:39:56.546Z,247.93
2018-06-10T03:42:38.181Z,175.57
2018-06-10T03:45:17.953Z,140.60
2018-06-10T03:47:58.300Z,160.57
2018-06-10T03:50:38.476Z,211.50
2018-06-10T03:53:18.062Z,203.87
2018-06-10T03:55:57.845Z,205.07
2018-06-10T03:58:36.698Z,208.87
2018-06-10T04:01:17.601Z,371.10
2018-06-10T04:03:56.919Z,397.77
2018-06-10T04:06:35.999Z,208.57
2018-06-10T04:09:19.580Z,174.43
2018-06-10T04:12:00.136Z,219.17
2018-06-10T04:14:40.282Z,309.00
2018-06-10T04:17:20.205Z,269.83
2018-06-10T04:19:57.841Z,263.23
2018-06-10T04:22:36.683Z,238.80
2018-06-10T04:25:17.879Z,274.77
2018-06-10T04:27:58.482Z,269.00
2018-06-10T04:30:35.885Z,320.73
2018-06-10T04:33:15.058Z,792.27
2018-06-10T04:35:54.098Z,663.30
2018-06-10T04:38:34.276Z,615.77
2018-06-10T04:41:18.642Z,956.33
2018-06-10T04:43:57.518Z,605.17
2018-06-10T04:46:38.682Z,564.63
2018-06-10T04:49:18.595Z,453.87
2018-06-10T04:51:59.400Z,558.43
2018-06-10T04:54:39.437Z,597.07
2018-06-10T04:57:21.460Z,670.10
2018-06-10T05:00:00.884Z,687.37
2018-06-10T05:02:40.183Z,693.33
2018-06-10T05:05:19.497Z,291.60
2018-06-10T05:07:58.238Z,723.67
2018-06-10T05:10:38.638Z,734.67
2018-06-10T05:13:17.716Z,711.07
2018-06-10T05:15:56.861Z,620.00
2018-06-10T05:18:36.958Z,491.70
2018-06-10T05:21:16.337Z,705.10
2018-06-10T05:23:56.022Z,831.27
2018-06-10T05:26:36.176Z,798.97
2018-06-10T05:29:16.335Z,696.07
2018-06-10T05:31:58.835Z,257.57
2018-06-10T05:34:40.797Z,547.93
2018-06-10T05:37:21.399Z,444.13
2018-06-10T05:40:00.873Z,681.37
2018-06-10T05:42:40.923Z,713.27
2018-06-10T05:45:20.687Z,496.37
2018-06-10T05:48:00.198Z,663.60
2018-06-10T05:50:40.197Z,831.27
2018-06-10T05:53:22.938Z,733.87
2018-06-10T05:56:02.322Z,632.40
2018-06-10T05:58:41.282Z,793.13
2018-06-10T06:01:19.447Z,792.60
2018-06-10T06:03:58.501Z,497.07
2018-06-10T06:06:36.843Z,427.53
2018-06-10T06:09:20.499Z,350.23
2018-06-10T06:11:59.958Z,655.33
2018-06-10T06:14:38.118Z,440.63
2018-06-10T06:17:18.961Z,429.30
2018-06-10T06:19:56.598Z,593.77
2018-06-10T06:22:37.499Z,663.20
2018-06-10T06:25:16.041Z,747.13
2018-06-10T06:27:56.639Z,1180.97
2018-06-10T06:30:37.617Z,944.80
2018-06-10T06:33:18.266Z,1051.27
2018-06-10T06:35:57.227Z,754.83
2018-06-10T06:38:38.142Z,1152.97
2018-06-10T06:41:24.566Z,1092.33
2018-06-10T06:44:06.917Z,1228.13
2018-06-10T06:46:46.157Z,1144.43
2018-06-10T06:49:25.819Z,1206.20
2018-06-10T06:52:07.976Z,1247.07
2018-06-10T06:54:47.581Z,1099.60
2018-06-10T06:57:28.611Z,891.97
2018-06-10T07:00:13.257Z,502.87
2018-06-10T07:02:52.283Z,541.43
2018-06-10T07:05:30.061Z,714.63
2018-06-10T07:08:13.925Z,1199.97
2018-06-10T07:11:01.684Z,821.13
2018-06-10T07:13:43.844Z,383.77
2018-06-10T07:16:23.037Z,949.70
2018-06-10T07:28:35.478Z,949.55
2018-06-10T07:31:13.859Z,694.83
2018-06-10T07:33:56.161Z,239.15
2018-06-10T07:36:38.443Z,74.10
2018-06-10T07:39:18.617Z,157.07
2018-06-10T07:41:57.438Z,76.02
2018-06-10T07:44:37.878Z,74.90
2018-06-10T07:47:22.802Z,64.90
2018-06-10T07:50:04.564Z,68.12
2018-06-10T07:52:41.806Z,63.90
2018-06-10T07:55:19.575Z,87.67
2018-06-10T07:58:53.840Z,116.90
2018-06-10T08:01:33.103Z,200.30
2018-06-10T08:04:19.245Z,308.20
2018-06-10T08:07:02.336Z,252.65
2018-06-10T08:09:39.442Z,122.28
2018-06-10T08:12:25.521Z,114.40
2018-06-10T08:15:02.348Z,120.95
2018-06-10T08:17:46.003Z,114.57
2018-06-10T08:20:38.904Z,97.10
2018-06-10T08:23:38.224Z,80.65
2018-06-10T08:33:35.264Z,64.05
2018-06-10T08:36:24.947Z,64.22
2018-06-10T08:39:04.401Z,55.85
2018-06-10T08:41:44.939Z,65.15
2018-06-10T08:44:22.978Z,58.17
2018-06-10T08:47:00.821Z,63.78
2018-06-10T08:49:46.082Z,67.78
2018-06-10T08:52:34.855Z,77.45
2018-06-10T08:55:12.678Z,73.17
2018-06-10T08:57:52.863Z,75.65
2018-06-10T09:31:07.213Z,72.27
2018-06-10T09:37:33.341Z,110.65
2018-06-10T09:40:13.012Z,221.25
2018-06-10T09:42:50.827Z,273.62
2018-06-10T09:45:30.464Z,280.18
2018-06-10T09:48:09.103Z,167.37
2018-06-10T09:50:54.340Z,75.75
2018-06-10T09:53:40.162Z,90.92
2018-06-10T09:56:20.081Z,98.50
2018-06-10T09:58:59.095Z,92.42
2018-06-10T10:04:58.020Z,66.00
2018-06-10T10:07:36.780Z,90.05
2018-06-10T10:10:26.144Z,65.30
2018-06-10T10:13:06.025Z,57.33
2018-06-10T10:15:44.342Z,41.48
2018-06-10T10:18:32.003Z,45.67
2018-06-10T10:21:19.342Z,55.88
2018-06-10T10:23:59.887Z,40.30
2018-06-10T10:29:54.302Z,44.45
2018-06-10T10:32:37.881Z,45.90
2018-06-10T10:35:15.945Z,44.53
2018-06-10T10:38:01.440Z,52.15
2018-06-10T10:40:38.357Z,51.90
2018-06-10T10:43:21.246Z,62.00
2018-06-10T10:45:59.679Z,60.85
2018-06-10T10:48:40.763Z,58.48
2018-06-10T10:51:24.042Z,58.52
2018-06-10T10:54:06.661Z,58.63
2018-06-10T10:56:49.978Z,63.48
2018-06-10T10:59:43.638Z,64.67
2018-06-10T11:02:21.726Z,66.33
2018-06-10T11:05:00.640Z,72.08
2018-06-10T11:07:47.461Z,61.15
2018-06-10T11:16:41.317Z,70.10
2018-06-10T11:19:19.062Z,67.53
2018-06-10T11:21:58.137Z,76.53
2018-06-10T11:24:39.300Z,76.60
2018-06-10T11:27:23.990Z,78.92
2018-06-10T11:30:11.658Z,76.12
2018-06-10T11:32:52.856Z,68.10
2018-06-10T11:35:30.462Z,64.77
2018-06-10T11:38:12.444Z,82.80
2018-06-10T11:40:52.242Z,99.47
2018-06-10T11:43:34.582Z,76.22
2018-06-10T11:49:24.543Z,92.20
2018-06-10T11:52:05.111Z,89.55
2018-06-10T11:54:44.058Z,86.87
2018-06-10T11:57:29.480Z,105.65
2018-06-10T12:00:14.160Z,121.80
2018-06-10T12:03:00.862Z,574.23
2018-06-10T12:05:50.017Z,108.22
2018-06-10T12:08:34.730Z,69.30
2018-06-10T12:11:17.441Z,58.58
2018-06-10T12:13:56.737Z,66.30
2018-06-10T12:16:39.262Z,67.55
2018-06-10T12:19:19.124Z,59.93
2018-06-10T12:21:58.998Z,68.28
2018-06-10T12:24:36.955Z,71.05
2018-06-10T12:27:15.976Z,65.55
2018-06-10T12:29:57.895Z,61.90
2018-06-10T12:32:37.578Z,56.95
2018-06-10T12:35:32.454Z,54.83
2018-06-10T12:38:10.540Z,52.88
2018-06-10T12:44:20.133Z,77.40
2018-06-10T12:47:14.491Z,71.30
2018-06-10T12:50:10.710Z,65.28
2018-06-10T12:52:49.459Z,62.45
2018-06-10T12:55:28.745Z,69.97
2018-06-10T12:58:15.603Z,68.57
2018-06-10T13:01:01.867Z,70.83
2018-06-10T13:03:44.128Z,55.00
2018-06-10T13:06:30.465Z,52.48
2018-06-10T13:09:12.372Z,53.75
2018-06-10T13:11:58.154Z,57.43
2018-06-10T13:14:34.700Z,56.68
2018-06-10T13:17:16.994Z,55.35
2018-06-10T13:19:59.866Z,57.13
2018-06-10T13:22:45.546Z,59.23
2018-06-10T13:25:25.644Z,61.13
2018-06-10T13:28:03.805Z,59.05
2018-06-10T13:30:43.331Z,58.33
2018-06-10T13:33:24.068Z,58.78
2018-06-10T13:36:06.926Z,63.75
2018-06-10T13:38:45.921Z,62.35
2018-06-10T13:41:29.171Z,65.72
2018-06-10T13:44:07.067Z,64.07
2018-06-10T13:46:45.648Z,65.42
2018-06-10T13:49:24.824Z,56.77
2018-06-10T13:52:07.745Z,60.75
2018-06-10T13:54:51.548Z,53.02
2018-06-10T13:57:32.362Z,65.32
2018-06-10T14:00:16.944Z,58.90
2018-06-10T14:02:55.269Z,65.35
2018-06-10T14:05:43.444Z,58.20
2018-06-10T14:08:34.327Z,64.60
2018-06-10T14:11:17.748Z,68.60
2018-06-10T14:13:58.492Z,71.85
2018-06-10T14:16:39.149Z,68.70
2018-06-10T14:19:17.109Z,70.25
2018-06-10T14:22:01.226Z,67.37
2018-06-10T14:25:02.127Z,63.92
2018-06-10T14:27:45.506Z,68.45
2018-06-10T14:30:28.451Z,75.25
2018-06-10T14:33:08.225Z,73.15
2018-06-10T14:35:51.306Z,66.72
2018-06-10T14:38:40.401Z,65.95
2018-06-10T14:41:23.371Z,64.58
2018-06-10T14:44:04.491Z,73.28
2018-06-10T14:46:46.746Z,70.45
2018-06-10T14:49:27.358Z,68.95
2018-06-10T14:52:06.908Z,61.50
2018-06-10T14:57:48.129Z,67.80
2018-06-10T15:00:38.364Z,65.08
2018-06-10T15:03:19.088Z,66.28
2018-06-10T15:06:06.754Z,83.45
2018-06-10T15:08:44.910Z,70.70
2018-06-10T15:11:26.827Z,66.97
2018-06-10T15:14:06.906Z,86.40
2018-06-10T15:16:45.605Z,64.15
2018-06-10T15:19:29.242Z,80.95
2018-06-10T15:22:17.208Z,68.25
2018-06-10T15:24:55.988Z,66.80
2018-06-10T15:27:37.283Z,55.60
2018-06-10T15:30:20.750Z,54.77
2018-06-10T15:33:02.706Z,52.75
2018-06-10T15:35:57.441Z,50.60
2018-06-10T15:38:38.628Z,56.75
2018-06-10T15:41:23.153Z,53.70
2018-06-10T15:44:08.330Z,55.70
2018-06-10T15:46:51.969Z,59.42
2018-06-10T15:49:30.687Z,60.03
2018-06-10T15:52:22.164Z,58.65
2018-06-10T15:55:04.166Z,60.45
2018-06-10T15:57:47.532Z,58.52
2018-06-10T16:00:27.789Z,60.00
2018-06-10T16:03:07.322Z,61.58
2018-06-10T16:05:52.575Z,57.55
2018-06-10T16:08:35.426Z,59.15
2018-06-10T16:11:12.971Z,61.42
2018-06-10T16:13:51.812Z,57.62
2018-06-10T16:16:30.266Z,54.90
2018-06-10T16:19:08.042Z,55.60
2018-06-10T16:21:51.261Z,54.80
2018-06-10T16:24:41.482Z,60.90
2018-06-10T16:27:19.760Z,58.23
2018-06-10T16:29:58.727Z,52.00
2018-06-10T16:32:40.326Z,56.58
2018-06-10T16:35:19.570Z,51.58
2018-06-10T16:38:01.988Z,44.50
2018-06-10T16:40:50.766Z,43.05
2018-06-10T16:43:36.924Z,45.83
2018-06-10T16:46:13.512Z,50.63
2018-06-10T16:48:50.790Z,55.12
2018-06-10T16:51:30.862Z,56.33
2018-06-10T16:54:09.248Z,62.33
2018-06-10T16:56:49.085Z,66.72
2018-06-10T16:59:29.032Z,61.30
2018-06-10T17:02:17.793Z,59.40
2018-06-10T17:04:56.048Z,65.00
2018-06-10T17:07:36.622Z,66.30
2018-06-10T17:10:18.651Z,63.55
2018-06-10T17:13:05.583Z,58.05
2018-06-10T17:15:49.585Z,49.70
2018-06-10T17:18:37.024Z,48.45
2018-06-10T17:21:21.698Z,40.38
2018-06-10T17:23:59.209Z,44.90
2018-06-10T17:26:39.169Z,38.13
2018-06-10T17:29:19.606Z,39.35
2018-06-10T17:32:00.011Z,36.65
2018-06-10T17:34:45.617Z,50.25
2018-06-10T17:37:25.326Z,51.48
2018-06-10T17:40:06.629Z,52.83
2018-06-10T17:42:48.081Z,50.25
2018-06-10T17:45:27.283Z,41.23
2018-06-10T17:48:07.945Z,220.25
2018-06-10T17:51:02.571Z,72.62
2018-06-10T17:53:40.817Z,72.42
2018-06-10T17:56:21.563Z,124.45
2018-06-10T17:59:00.285Z,134.97
2018-06-10T18:01:40.550Z,302.27
2018-06-10T18:04:19.328Z,230.55
2018-06-10T18:06:59.147Z,349.45
2018-06-10T18:09:41.681Z,283.45
2018-06-10T18:12:20.288Z,398.65
2018-06-10T18:14:59.663Z,323.55
2018-06-10T18:17:39.127Z,307.92
2018-06-10T18:20:23.047Z,520.08
2018-06-10T18:23:16.784Z,591.90
2018-06-10T18:25:55.190Z,715.92
2018-06-10T18:28:37.165Z,749.90
2018-06-10T18:31:17.285Z,702.92
2018-06-10T18:33:59.454Z,724.20
2018-06-10T18:36:48.710Z,630.60
2018-06-10T18:39:29.451Z,626.73
2018-06-10T18:42:10.727Z,619.73
2018-06-10T18:44:51.005Z,374.50
2018-06-10T18:47:32.590Z,328.77
2018-06-10T18:50:12.292Z,281.05
2018-06-10T18:53:02.024Z,375.13
2018-06-10T18:55:40.808Z,295.95
2018-06-10T18:58:19.922Z,193.13
2018-06-10T19:01:00.372Z,262.30
2018-06-10T19:03:43.265Z,121.57
2018-06-10T19:06:22.986Z,102.62
2018-06-10T19:09:02.867Z,112.60
2018-06-10T19:11:46.552Z,77.00
2018-06-10T19:14:33.586Z,638.50
2018-06-10T19:17:12.122Z,198.43
2018-06-10T19:19:53.948Z,534.83
2018-06-10T19:22:37.890Z,523.43
2018-06-10T19:25:21.126Z,133.57
2018-06-10T19:28:03.353Z,624.17
2018-06-10T19:30:43.630Z,197.80
2018-06-10T19:33:28.967Z,120.73
2018-06-10T19:36:06.731Z,132.90
2018-06-10T19:38:44.588Z,163.93
2018-06-10T19:41:23.708Z,197.30
2018-06-10T19:44:04.645Z,203.10
2018-06-10T19:46:43.270Z,221.50
2018-06-10T19:49:22.400Z,295.80
2018-06-10T19:52:04.437Z,403.93
2018-06-10T19:54:43.369Z,533.07
2018-06-10T19:57:22.608Z,827.83
2018-06-10T20:00:09.590Z,374.90
2018-06-10T20:02:48.651Z,885.67
2018-06-10T20:05:29.347Z,854.47
2018-06-10T20:08:08.883Z,675.37
2018-06-10T20:10:47.346Z,440.43
2018-06-10T20:16:32.425Z,575.40
2018-06-10T20:19:14.071Z,613.80
2018-06-10T20:21:53.390Z,656.60
2018-06-10T20:24:31.134Z,729.97
2018-06-10T20:27:17.781Z,783.27
2018-06-10T20:29:56.643Z,954.00
2018-06-10T20:32:38.185Z,953.70
2018-06-10T20:35:20.003Z,1117.07
2018-06-10T20:37:59.887Z,1125.33
2018-06-10T20:40:37.429Z,1246.33
2018-06-10T20:43:18.123Z,1313.97
2018-06-10T20:45:58.522Z,1216.67
2018-06-10T20:48:38.969Z,1326.83
2018-06-10T20:51:25.811Z,1248.53
2018-06-10T20:54:07.752Z,1245.60
2018-06-10T20:56:49.187Z,1362.40
2018-06-10T20:59:29.609Z,1097.23
2018-06-10T21:02:09.949Z,1223.40
2018-06-10T21:04:50.525Z,1278.97
2018-06-10T21:07:43.248Z,1224.03
2018-06-10T21:10:24.170Z,1255.33
2018-06-10T21:13:03.147Z,1287.33
2018-06-10T21:15:43.565Z,1276.77
2018-06-10T21:18:25.804Z,1278.27
2018-06-10T21:21:11.843Z,1168.43
2018-06-10T21:23:58.445Z,1046.73
2018-06-10T21:26:35.313Z,1162.23
2018-06-10T21:29:16.010Z,1095.77
2018-06-10T21:32:01.367Z,1067.27
2018-06-10T21:34:45.348Z,1064.30
2018-06-10T21:37:26.783Z,1271.03
2018-06-10T21:40:12.409Z,1233.87
2018-06-10T21:42:53.545Z,1669.57
2018-06-10T21:45:35.988Z,1766.33
2018-06-10T21:48:17.847Z,1446.80
2018-06-10T21:50:59.706Z,1591.90
2018-06-10T21:53:45.343Z,1646.60
2018-06-10T21:56:27.290Z,1066.23
2018-06-10T21:59:06.667Z,1464.20
2018-06-10T22:01:46.515Z,931.43
2018-06-10T22:04:28.091Z,708.77
2018-06-10T22:07:12.732Z,683.80
2018-06-10T22:09:49.864Z,595.40
2018-06-10T22:34:39.535Z,479.80
2018-06-10T22:37:18.578Z,515.70
2018-06-10T22:40:00.973Z,843.07
2018-06-10T22:42:39.610Z,1026.77
2018-06-10T22:45:24.820Z,1171.63
2018-06-10T22:48:02.533Z,1247.40
2018-06-10T22:50:42.511Z,1281.60
2018-06-10T22:55:39.636Z,1272.33
2018-06-10T22:58:19.174Z,1282.23
2018-06-10T23:00:58.411Z,1333.73
2018-06-10T23:03:40.240Z,1331.73
2018-06-10T23:06:20.914Z,1292.90
2018-06-10T23:09:00.890Z,1254.10
2018-06-10T23:11:41.331Z,1231.07
2018-06-10T23:14:21.739Z,1235.80
2018-06-10T23:17:10.694Z,1208.77
2018-06-10T23:19:51.078Z,1223.87
2018-06-10T23:22:31.450Z,1212.83
2018-06-10T23:25:11.457Z,1125.93
2018-06-10T23:27:50.735Z,1094.37
2018-06-10T23:30:29.619Z,1082.73
2018-06-10T23:33:15.853Z,1029.90
2018-06-10T23:35:54.417Z,1005.63
2018-06-10T23:39:02.571Z,849.50
2018-06-10T23:41:40.974Z,840.67
2018-06-10T23:44:20.515Z,795.40
2018-06-10T23:47:00.219Z,733.50
2018-06-10T23:49:40.192Z,676.43
2018-06-10T23:52:18.430Z,678.07
2018-06-10T23:55:02.511Z,703.77
2018-06-10T23:57:48.892Z,704.17
